sensor_id;sensor_type;location;lat;lon;timestamp;temperature;humidity
13086;DHT22;6609;49.882;8.664;2022-11-11T00:01:41;6.90;90.20
13086;DHT22;6609;49.882;8.664;2022-11-11T00:04:07;6.90;90.20
13086;DHT22;6609;49.882;8.664;2022-11-11T00:06:34;6.90;90.30
13086;DHT22;6609;49.882;8.664;2022-11-11T00:09:02;6.90;90.30
13086;DHT22;6609;49.882;8.664;2022-11-11T00:11:29;6.90;90.20
13086;DHT22;6609;49.882;8.664;2022-11-11T00:16:23;6.80;90.20
13086;DHT22;6609;49.882;8.664;2022-11-11T00:18:49;6.80;90.20
13086;DHT22;6609;49.882;8.664;2022-11-11T00:21:34;6.70;90.10
13086;DHT22;6609;49.882;8.664;2022-11-11T00:24:24;6.70;90.20
13086;DHT22;6609;49.882;8.664;2022-11-11T00:27:09;6.70;90.20
13086;DHT22;6609;49.882;8.664;2022-11-11T00:29:36;6.70;90.10
13086;DHT22;6609;49.882;8.664;2022-11-11T00:32:06;6.70;90.30
13086;DHT22;6609;49.882;8.664;2022-11-11T00:34:48;6.60;90.10
13086;DHT22;6609;49.882;8.664;2022-11-11T00:37:33;6.60;90.10
13086;DHT22;6609;49.882;8.664;2022-11-11T00:40:01;6.60;90.10
13086;DHT22;6609;49.882;8.664;2022-11-11T00:42:28;6.60;90.20
13086;DHT22;6609;49.882;8.664;2022-11-11T00:44:55;6.50;90.40
13086;DHT22;6609;49.882;8.664;2022-11-11T00:47:22;6.50;90.20
13086;DHT22;6609;49.882;8.664;2022-11-11T00:50:10;6.50;90.20
13086;DHT22;6609;49.882;8.664;2022-11-11T00:52:54;6.50;90.20
13086;DHT22;6609;49.882;8.664;2022-11-11T00:55:22;6.40;90.20
13086;DHT22;6609;49.882;8.664;2022-11-11T00:57:49;6.40;90.20
13086;DHT22;6609;49.882;8.664;2022-11-11T01:00:16;6.40;90.20
13086;DHT22;6609;49.882;8.664;2022-11-11T01:02:43;6.50;90.50
13086;DHT22;6609;49.882;8.664;2022-11-11T01:07:37;6.50;90.20
13086;DHT22;6609;49.882;8.664;2022-11-11T01:10:05;6.40;90.20
13086;DHT22;6609;49.882;8.664;2022-11-11T01:12:33;6.40;90.20
13086;DHT22;6609;49.882;8.664;2022-11-11T01:14:59;6.40;90.40
13086;DHT22;6609;49.882;8.664;2022-11-11T01:17:27;6.40;90.40
13086;DHT22;6609;49.882;8.664;2022-11-11T01:19:54;6.30;90.20
13086;DHT22;6609;49.882;8.664;2022-11-11T01:22:21;6.30;90.40
13086;DHT22;6609;49.882;8.664;2022-11-11T01:24:47;6.30;90.20
13086;DHT22;6609;49.882;8.664;2022-11-11T01:29:42;6.30;90.20
13086;DHT22;6609;49.882;8.664;2022-11-11T01:32:10;6.20;90.10
13086;DHT22;6609;49.882;8.664;2022-11-11T01:34:37;6.20;90.40
13086;DHT22;6609;49.882;8.664;2022-11-11T01:37:04;6.20;90.40
13086;DHT22;6609;49.882;8.664;2022-11-11T01:41:57;6.20;90.20
13086;DHT22;6609;49.882;8.664;2022-11-11T01:44:45;6.20;90.50
13086;DHT22;6609;49.882;8.664;2022-11-11T01:47:12;6.20;90.20
13086;DHT22;6609;49.882;8.664;2022-11-11T01:49:47;6.20;90.40
13086;DHT22;6609;49.882;8.664;2022-11-11T01:52:17;6.20;90.10
13086;DHT22;6609;49.882;8.664;2022-11-11T01:54:48;6.10;90.10
13086;DHT22;6609;49.882;8.664;2022-11-11T01:57:19;6.20;90.10
13086;DHT22;6609;49.882;8.664;2022-11-11T01:59:52;6.10;90.10
13086;DHT22;6609;49.882;8.664;2022-11-11T02:02:29;6.10;90.40
13086;DHT22;6609;49.882;8.664;2022-11-11T02:04:59;6.10;90.10
13086;DHT22;6609;49.882;8.664;2022-11-11T02:07:44;6.10;90.10
13086;DHT22;6609;49.882;8.664;2022-11-11T02:10:11;6.10;90.30
13086;DHT22;6609;49.882;8.664;2022-11-11T02:12:38;6.10;90.10
13086;DHT22;6609;49.882;8.664;2022-11-11T02:15:26;6.10;90.40
13086;DHT22;6609;49.882;8.664;2022-11-11T02:17:53;6.00;90.10
13086;DHT22;6609;49.882;8.664;2022-11-11T02:20:22;6.00;90.10
13086;DHT22;6609;49.882;8.664;2022-11-11T02:22:53;6.00;90.40
13086;DHT22;6609;49.882;8.664;2022-11-11T02:25:25;5.90;90.10
13086;DHT22;6609;49.882;8.664;2022-11-11T02:27:55;5.90;90.10
13086;DHT22;6609;49.882;8.664;2022-11-11T02:30:23;5.90;90.10
13086;DHT22;6609;49.882;8.664;2022-11-11T02:32:51;5.90;90.20
13086;DHT22;6609;49.882;8.664;2022-11-11T02:35:22;5.90;90.20
13086;DHT22;6609;49.882;8.664;2022-11-11T02:37:51;5.90;90.40
13086;DHT22;6609;49.882;8.664;2022-11-11T02:40:20;5.90;90.10
13086;DHT22;6609;49.882;8.664;2022-11-11T02:42:50;5.90;90.30
13086;DHT22;6609;49.882;8.664;2022-11-11T02:45:16;5.90;90.30
13086;DHT22;6609;49.882;8.664;2022-11-11T02:47:43;5.90;90.40
13086;DHT22;6609;49.882;8.664;2022-11-11T02:50:10;5.80;90.00
13086;DHT22;6609;49.882;8.664;2022-11-11T02:52:37;5.80;90.00
13086;DHT22;6609;49.882;8.664;2022-11-11T02:55:04;5.80;90.30
13086;DHT22;6609;49.882;8.664;2022-11-11T02:57:31;5.80;90.30
13086;DHT22;6609;49.882;8.664;2022-11-11T03:00:00;5.80;90.00
13086;DHT22;6609;49.882;8.664;2022-11-11T03:02:27;5.70;90.60
13086;DHT22;6609;49.882;8.664;2022-11-11T03:04:54;5.80;90.10
13086;DHT22;6609;49.882;8.664;2022-11-11T03:07:22;5.70;90.00
13086;DHT22;6609;49.882;8.664;2022-11-11T03:09:48;5.70;90.00
13086;DHT22;6609;49.882;8.664;2022-11-11T03:12:15;5.80;90.40
13086;DHT22;6609;49.882;8.664;2022-11-11T03:14:43;5.70;90.20
13086;DHT22;6609;49.882;8.664;2022-11-11T03:17:11;5.70;90.00
13086;DHT22;6609;49.882;8.664;2022-11-11T03:19:55;5.70;90.00
13086;DHT22;6609;49.882;8.664;2022-11-11T03:22:42;5.70;90.30
13086;DHT22;6609;49.882;8.664;2022-11-11T03:25:08;5.60;90.20
13086;DHT22;6609;49.882;8.664;2022-11-11T03:27:53;5.60;90.20
13086;DHT22;6609;49.882;8.664;2022-11-11T03:30:19;5.60;90.00
13086;DHT22;6609;49.882;8.664;2022-11-11T03:32:47;5.60;90.00
13086;DHT22;6609;49.882;8.664;2022-11-11T03:35:14;5.60;90.30
13086;DHT22;6609;49.882;8.664;2022-11-11T03:37:41;5.60;90.30
13086;DHT22;6609;49.882;8.664;2022-11-11T03:40:25;5.50;90.00
13086;DHT22;6609;49.882;8.664;2022-11-11T03:42:52;5.50;90.30
13086;DHT22;6609;49.882;8.664;2022-11-11T03:45:19;5.50;90.30
13086;DHT22;6609;49.882;8.664;2022-11-11T03:47:45;5.50;90.30
13086;DHT22;6609;49.882;8.664;2022-11-11T03:50:13;5.50;90.30
13086;DHT22;6609;49.882;8.664;2022-11-11T03:52:41;6.10;90.60
13086;DHT22;6609;49.882;8.664;2022-11-11T03:55:08;5.70;90.40
13086;DHT22;6609;49.882;8.664;2022-11-11T03:57:39;5.50;90.40
13086;DHT22;6609;49.882;8.664;2022-11-11T04:00:07;5.50;90.50
13086;DHT22;6609;49.882;8.664;2022-11-11T04:02:34;5.60;90.60
13086;DHT22;6609;49.882;8.664;2022-11-11T04:05:20;5.60;90.60
13086;DHT22;6609;49.882;8.664;2022-11-11T04:08:04;5.60;90.70
13086;DHT22;6609;49.882;8.664;2022-11-11T04:10:49;5.70;90.40
13086;DHT22;6609;49.882;8.664;2022-11-11T04:13:15;5.80;90.70
13086;DHT22;6609;49.882;8.664;2022-11-11T04:15:59;5.80;90.50
13086;DHT22;6609;49.882;8.664;2022-11-11T04:18:33;5.80;90.70
13086;DHT22;6609;49.882;8.664;2022-11-11T04:21:19;5.80;90.70
13086;DHT22;6609;49.882;8.664;2022-11-11T04:24:04;5.80;90.90
13086;DHT22;6609;49.882;8.664;2022-11-11T04:26:52;5.90;91.00
13086;DHT22;6609;49.882;8.664;2022-11-11T04:29:19;6.00;91.00
13086;DHT22;6609;49.882;8.664;2022-11-11T04:31:56;6.00;91.10
13086;DHT22;6609;49.882;8.664;2022-11-11T04:34:41;6.10;91.10
13086;DHT22;6609;49.882;8.664;2022-11-11T04:37:09;6.10;91.30
13086;DHT22;6609;49.882;8.664;2022-11-11T04:39:36;6.20;91.30
13086;DHT22;6609;49.882;8.664;2022-11-11T04:42:21;6.20;91.30
13086;DHT22;6609;49.882;8.664;2022-11-11T04:44:48;6.20;91.40
13086;DHT22;6609;49.882;8.664;2022-11-11T04:47:32;6.30;91.50
13086;DHT22;6609;49.882;8.664;2022-11-11T04:49:59;6.30;91.50
13086;DHT22;6609;49.882;8.664;2022-11-11T04:52:27;6.30;91.50
13086;DHT22;6609;49.882;8.664;2022-11-11T04:54:55;6.30;91.50
13086;DHT22;6609;49.882;8.664;2022-11-11T04:57:40;6.30;91.70
13086;DHT22;6609;49.882;8.664;2022-11-11T05:00:09;6.30;91.50
13086;DHT22;6609;49.882;8.664;2022-11-11T05:02:37;6.40;91.50
13086;DHT22;6609;49.882;8.664;2022-11-11T05:05:21;6.30;91.70
13086;DHT22;6609;49.882;8.664;2022-11-11T05:07:49;6.30;91.70
13086;DHT22;6609;49.882;8.664;2022-11-11T05:10:34;6.20;91.80
13086;DHT22;6609;49.882;8.664;2022-11-11T05:13:02;6.20;92.10
13086;DHT22;6609;49.882;8.664;2022-11-11T05:15:47;6.20;92.10
13086;DHT22;6609;49.882;8.664;2022-11-11T05:18:31;6.20;92.40
13086;DHT22;6609;49.882;8.664;2022-11-11T05:21:17;6.20;92.40
13086;DHT22;6609;49.882;8.664;2022-11-11T05:23:49;6.10;92.40
13086;DHT22;6609;49.882;8.664;2022-11-11T05:26:33;6.20;92.40
13086;DHT22;6609;49.882;8.664;2022-11-11T05:29:00;6.10;92.30
13086;DHT22;6609;49.882;8.664;2022-11-11T05:31:28;6.10;92.40
13086;DHT22;6609;49.882;8.664;2022-11-11T05:33:55;6.10;92.40
13086;DHT22;6609;49.882;8.664;2022-11-11T05:36:22;6.10;92.60
13086;DHT22;6609;49.882;8.664;2022-11-11T05:38:50;6.10;92.70
13086;DHT22;6609;49.882;8.664;2022-11-11T05:41:17;6.10;92.90
13086;DHT22;6609;49.882;8.664;2022-11-11T05:43:43;6.10;92.80
13086;DHT22;6609;49.882;8.664;2022-11-11T05:46:10;6.10;93.00
13086;DHT22;6609;49.882;8.664;2022-11-11T05:51:24;6.10;92.80
13086;DHT22;6609;49.882;8.664;2022-11-11T05:53:56;6.20;93.00
13086;DHT22;6609;49.882;8.664;2022-11-11T05:56:23;6.10;93.30
13086;DHT22;6609;49.882;8.664;2022-11-11T05:58:50;6.20;93.10
13086;DHT22;6609;49.882;8.664;2022-11-11T06:01:17;6.10;93.10
13086;DHT22;6609;49.882;8.664;2022-11-11T06:03:44;6.10;93.20
13086;DHT22;6609;49.882;8.664;2022-11-11T06:06:11;6.10;93.50
13086;DHT22;6609;49.882;8.664;2022-11-11T06:08:38;6.10;93.40
13086;DHT22;6609;49.882;8.664;2022-11-11T06:11:06;6.20;93.50
13086;DHT22;6609;49.882;8.664;2022-11-11T06:16:00;6.30;93.40
13086;DHT22;6609;49.882;8.664;2022-11-11T06:20:55;6.30;93.50
13086;DHT22;6609;49.882;8.664;2022-11-11T06:23:25;6.30;93.50
13086;DHT22;6609;49.882;8.664;2022-11-11T06:25:52;6.30;93.70
13086;DHT22;6609;49.882;8.664;2022-11-11T06:28:37;6.20;93.50
13086;DHT22;6609;49.882;8.664;2022-11-11T06:31:04;6.30;93.60
13086;DHT22;6609;49.882;8.664;2022-11-11T06:33:32;6.20;93.60
13086;DHT22;6609;49.882;8.664;2022-11-11T06:35:58;6.20;93.70
13086;DHT22;6609;49.882;8.664;2022-11-11T06:38:25;6.20;93.90
13086;DHT22;6609;49.882;8.664;2022-11-11T06:40:52;6.30;93.70
13086;DHT22;6609;49.882;8.664;2022-11-11T06:43:19;6.30;93.70
13086;DHT22;6609;49.882;8.664;2022-11-11T06:45:49;6.30;94.00
13086;DHT22;6609;49.882;8.664;2022-11-11T06:48:16;6.30;93.70
13086;DHT22;6609;49.882;8.664;2022-11-11T06:50:43;6.30;94.00
13086;DHT22;6609;49.882;8.664;2022-11-11T06:53:11;6.20;93.80
13086;DHT22;6609;49.882;8.664;2022-11-11T06:55:38;6.20;94.10
13086;DHT22;6609;49.882;8.664;2022-11-11T06:58:06;6.30;94.10
13086;DHT22;6609;49.882;8.664;2022-11-11T07:03:02;6.30;94.10
13086;DHT22;6609;49.882;8.664;2022-11-11T07:07:56;6.40;94.00
13086;DHT22;6609;49.882;8.664;2022-11-11T07:10:22;6.50;94.00
13086;DHT22;6609;49.882;8.664;2022-11-11T07:17:43;6.40;94.00
13086;DHT22;6609;49.882;8.664;2022-11-11T07:20:11;6.50;94.00
13086;DHT22;6609;49.882;8.664;2022-11-11T07:22:38;6.40;94.30
13086;DHT22;6609;49.882;8.664;2022-11-11T07:25:06;6.50;94.30
13086;DHT22;6609;49.882;8.664;2022-11-11T07:27:35;6.50;94.50
13086;DHT22;6609;49.882;8.664;2022-11-11T07:30:03;6.60;94.30
13086;DHT22;6609;49.882;8.664;2022-11-11T07:34:57;6.70;94.30
13086;DHT22;6609;49.882;8.664;2022-11-11T07:37:25;6.80;94.40
13086;DHT22;6609;49.882;8.664;2022-11-11T07:39:52;6.80;94.30
13086;DHT22;6609;49.882;8.664;2022-11-11T07:42:19;6.90;94.60
13086;DHT22;6609;49.882;8.664;2022-11-11T07:44:46;7.00;94.40
13086;DHT22;6609;49.882;8.664;2022-11-11T07:47:13;7.00;94.30
13086;DHT22;6609;49.882;8.664;2022-11-11T07:49:40;7.10;94.30
13086;DHT22;6609;49.882;8.664;2022-11-11T07:52:06;7.10;94.40
13086;DHT22;6609;49.882;8.664;2022-11-11T07:54:34;7.20;94.30
13086;DHT22;6609;49.882;8.664;2022-11-11T07:57:01;7.20;94.50
13086;DHT22;6609;49.882;8.664;2022-11-11T07:59:28;7.50;94.60
13086;DHT22;6609;49.882;8.664;2022-11-11T08:01:55;7.30;94.10
13086;DHT22;6609;49.882;8.664;2022-11-11T08:04:21;7.30;94.00
13086;DHT22;6609;49.882;8.664;2022-11-11T08:06:48;7.40;94.00
13086;DHT22;6609;49.882;8.664;2022-11-11T08:09:15;7.40;93.90
13086;DHT22;6609;49.882;8.664;2022-11-11T08:11:43;7.40;93.90
13086;DHT22;6609;49.882;8.664;2022-11-11T08:14:27;7.50;94.20
13086;DHT22;6609;49.882;8.664;2022-11-11T08:16:54;7.50;94.20
13086;DHT22;6609;49.882;8.664;2022-11-11T08:19:21;7.60;94.20
13086;DHT22;6609;49.882;8.664;2022-11-11T08:21:47;7.60;94.20
13086;DHT22;6609;49.882;8.664;2022-11-11T08:24:14;7.60;94.30
13086;DHT22;6609;49.882;8.664;2022-11-11T08:26:44;7.70;94.30
13086;DHT22;6609;49.882;8.664;2022-11-11T08:29:11;7.60;94.30
13086;DHT22;6609;49.882;8.664;2022-11-11T08:31:37;7.70;94.40
13086;DHT22;6609;49.882;8.664;2022-11-11T08:34:04;7.70;94.10
13086;DHT22;6609;49.882;8.664;2022-11-11T08:36:31;7.70;94.40
13086;DHT22;6609;49.882;8.664;2022-11-11T08:38:58;7.80;94.40
13086;DHT22;6609;49.882;8.664;2022-11-11T08:41:25;7.80;94.10
13086;DHT22;6609;49.882;8.664;2022-11-11T08:43:54;7.80;94.10
13086;DHT22;6609;49.882;8.664;2022-11-11T08:46:21;7.80;94.30
13086;DHT22;6609;49.882;8.664;2022-11-11T08:48:48;7.80;94.40
13086;DHT22;6609;49.882;8.664;2022-11-11T08:51:15;7.70;94.10
13086;DHT22;6609;49.882;8.664;2022-11-11T08:53:42;7.70;94.20
13086;DHT22;6609;49.882;8.664;2022-11-11T08:56:08;7.80;94.50
13086;DHT22;6609;49.882;8.664;2022-11-11T08:58:36;7.80;94.60
13086;DHT22;6609;49.882;8.664;2022-11-11T09:01:09;7.80;94.70
13086;DHT22;6609;49.882;8.664;2022-11-11T09:03:38;8.00;94.50
13086;DHT22;6609;49.882;8.664;2022-11-11T09:06:08;8.00;94.70
13086;DHT22;6609;49.882;8.664;2022-11-11T09:08:34;8.00;94.70
13086;DHT22;6609;49.882;8.664;2022-11-11T09:11:01;8.10;94.60
13086;DHT22;6609;49.882;8.664;2022-11-11T09:13:28;8.10;94.60
13086;DHT22;6609;49.882;8.664;2022-11-11T09:15:54;8.10;94.60
13086;DHT22;6609;49.882;8.664;2022-11-11T09:18:23;8.20;94.50
13086;DHT22;6609;49.882;8.664;2022-11-11T09:20:50;8.20;94.40
13086;DHT22;6609;49.882;8.664;2022-11-11T09:23:17;8.20;94.70
13086;DHT22;6609;49.882;8.664;2022-11-11T09:25:43;8.20;94.60
13086;DHT22;6609;49.882;8.664;2022-11-11T09:28:10;8.30;94.40
13086;DHT22;6609;49.882;8.664;2022-11-11T09:30:37;8.40;94.40
13086;DHT22;6609;49.882;8.664;2022-11-11T09:33:04;8.50;94.40
13086;DHT22;6609;49.882;8.664;2022-11-11T09:35:32;8.50;94.60
13086;DHT22;6609;49.882;8.664;2022-11-11T09:38:00;8.60;94.60
13086;DHT22;6609;49.882;8.664;2022-11-11T09:40:34;8.60;94.40
13086;DHT22;6609;49.882;8.664;2022-11-11T09:43:16;8.70;94.00
13086;DHT22;6609;49.882;8.664;2022-11-11T09:45:54;8.80;94.30
13086;DHT22;6609;49.882;8.664;2022-11-11T09:48:35;8.80;94.10
13086;DHT22;6609;49.882;8.664;2022-11-11T09:51:14;8.90;94.10
13086;DHT22;6609;49.882;8.664;2022-11-11T09:53:47;9.00;93.70
13086;DHT22;6609;49.882;8.664;2022-11-11T09:56:18;9.00;93.70
13086;DHT22;6609;49.882;8.664;2022-11-11T09:58:47;9.00;93.70
13086;DHT22;6609;49.882;8.664;2022-11-11T10:01:19;9.10;93.90
13086;DHT22;6609;49.882;8.664;2022-11-11T10:03:52;9.00;93.60
13086;DHT22;6609;49.882;8.664;2022-11-11T10:06:25;9.00;93.80
13086;DHT22;6609;49.882;8.664;2022-11-11T10:08:55;9.10;93.60
13086;DHT22;6609;49.882;8.664;2022-11-11T10:11:38;9.10;93.80
13086;DHT22;6609;49.882;8.664;2022-11-11T10:14:07;9.00;93.20
13086;DHT22;6609;49.882;8.664;2022-11-11T10:16:39;9.00;93.00
13086;DHT22;6609;49.882;8.664;2022-11-11T10:19:20;9.10;93.20
13086;DHT22;6609;49.882;8.664;2022-11-11T10:21:52;9.00;93.10
13086;DHT22;6609;49.882;8.664;2022-11-11T10:24:27;9.00;93.10
13086;DHT22;6609;49.882;8.664;2022-11-11T10:26:54;9.00;93.40
13086;DHT22;6609;49.882;8.664;2022-11-11T10:29:22;9.00;93.50
13086;DHT22;6609;49.882;8.664;2022-11-11T10:31:55;9.10;93.50
13086;DHT22;6609;49.882;8.664;2022-11-11T10:34:25;9.10;93.40
13086;DHT22;6609;49.882;8.664;2022-11-11T10:36:56;9.10;93.40
13086;DHT22;6609;49.882;8.664;2022-11-11T10:39:28;9.10;93.40
13086;DHT22;6609;49.882;8.664;2022-11-11T10:41:57;9.20;93.70
13086;DHT22;6609;49.882;8.664;2022-11-11T10:44:26;9.20;93.30
13086;DHT22;6609;49.882;8.664;2022-11-11T10:46:57;9.20;93.50
13086;DHT22;6609;49.882;8.664;2022-11-11T10:49:28;9.20;93.50
13086;DHT22;6609;49.882;8.664;2022-11-11T10:52:01;9.20;93.50
13086;DHT22;6609;49.882;8.664;2022-11-11T10:54:34;9.30;93.40
13086;DHT22;6609;49.882;8.664;2022-11-11T10:57:08;9.30;93.30
13086;DHT22;6609;49.882;8.664;2022-11-11T10:59:40;9.30;93.30
13086;DHT22;6609;49.882;8.664;2022-11-11T11:02:15;9.30;93.20
13086;DHT22;6609;49.882;8.664;2022-11-11T11:04:45;9.30;93.40
13086;DHT22;6609;49.882;8.664;2022-11-11T11:07:19;9.50;93.40
13086;DHT22;6609;49.882;8.664;2022-11-11T11:09:49;9.50;93.60
13086;DHT22;6609;49.882;8.664;2022-11-11T11:12:23;9.60;93.50
13086;DHT22;6609;49.882;8.664;2022-11-11T11:14:53;9.60;93.40
13086;DHT22;6609;49.882;8.664;2022-11-11T11:17:23;9.70;93.40
13086;DHT22;6609;49.882;8.664;2022-11-11T11:20:07;9.70;92.80
13086;DHT22;6609;49.882;8.664;2022-11-11T11:22:46;9.70;92.60
13086;DHT22;6609;49.882;8.664;2022-11-11T11:25:13;9.70;92.80
13086;DHT22;6609;49.882;8.664;2022-11-11T11:27:40;9.80;92.50
13086;DHT22;6609;49.882;8.664;2022-11-11T11:30:12;9.80;92.60
13086;DHT22;6609;49.882;8.664;2022-11-11T11:32:39;9.80;92.80
13086;DHT22;6609;49.882;8.664;2022-11-11T11:35:09;9.80;92.50
13086;DHT22;6609;49.882;8.664;2022-11-11T11:37:49;9.80;92.50
13086;DHT22;6609;49.882;8.664;2022-11-11T11:40:16;9.80;92.70
13086;DHT22;6609;49.882;8.664;2022-11-11T11:42:43;9.80;92.50
13086;DHT22;6609;49.882;8.664;2022-11-11T11:45:23;9.80;92.60
13086;DHT22;6609;49.882;8.664;2022-11-11T11:48:03;9.90;92.60
13086;DHT22;6609;49.882;8.664;2022-11-11T11:50:44;9.90;92.60
13086;DHT22;6609;49.882;8.664;2022-11-11T11:53:34;10.00;91.80
13086;DHT22;6609;49.882;8.664;2022-11-11T11:56:14;10.20;91.80
13086;DHT22;6609;49.882;8.664;2022-11-11T11:58:54;10.20;91.80
13086;DHT22;6609;49.882;8.664;2022-11-11T12:01:26;10.20;92.00
13086;DHT22;6609;49.882;8.664;2022-11-11T12:07:10;10.40;91.40
13086;DHT22;6609;49.882;8.664;2022-11-11T12:09:49;10.40;91.20
13086;DHT22;6609;49.882;8.664;2022-11-11T12:12:25;10.50;91.10
13086;DHT22;6609;49.882;8.664;2022-11-11T12:15:02;10.50;90.90
13086;DHT22;6609;49.882;8.664;2022-11-11T12:17:39;10.40;90.80
13086;DHT22;6609;49.882;8.664;2022-11-11T12:20:16;10.50;90.90
13086;DHT22;6609;49.882;8.664;2022-11-11T12:22:53;10.50;91.50
13086;DHT22;6609;49.882;8.664;2022-11-11T12:25:36;10.50;90.90
13086;DHT22;6609;49.882;8.664;2022-11-11T12:28:11;10.50;91.10
13086;DHT22;6609;49.882;8.664;2022-11-11T12:30:45;10.50;91.20
13086;DHT22;6609;49.882;8.664;2022-11-11T12:33:34;10.60;90.90
13086;DHT22;6609;49.882;8.664;2022-11-11T12:36:12;10.60;90.60
13086;DHT22;6609;49.882;8.664;2022-11-11T12:38:49;10.70;90.60
13086;DHT22;6609;49.882;8.664;2022-11-11T12:41:40;10.70;90.50
13086;DHT22;6609;49.882;8.664;2022-11-11T12:44:12;10.70;90.40
13086;DHT22;6609;49.882;8.664;2022-11-11T12:46:50;10.80;90.50
13086;DHT22;6609;49.882;8.664;2022-11-11T12:49:37;10.80;90.40
13086;DHT22;6609;49.882;8.664;2022-11-11T12:52:20;10.90;90.40
13086;DHT22;6609;49.882;8.664;2022-11-11T12:55:03;10.90;90.70
13086;DHT22;6609;49.882;8.664;2022-11-11T12:57:44;10.90;90.40
13086;DHT22;6609;49.882;8.664;2022-11-11T13:00:16;10.90;90.30
13086;DHT22;6609;49.882;8.664;2022-11-11T13:03:06;10.90;90.30
13086;DHT22;6609;49.882;8.664;2022-11-11T13:05:41;10.80;90.30
13086;DHT22;6609;49.882;8.664;2022-11-11T13:08:23;10.80;90.50
13086;DHT22;6609;49.882;8.664;2022-11-11T13:11:00;10.80;90.30
13086;DHT22;6609;49.882;8.664;2022-11-11T13:13:45;10.80;90.40
13086;DHT22;6609;49.882;8.664;2022-11-11T13:16:20;10.80;90.50
13086;DHT22;6609;49.882;8.664;2022-11-11T13:18:50;10.70;90.30
13086;DHT22;6609;49.882;8.664;2022-11-11T13:21:23;10.80;90.30
13086;DHT22;6609;49.882;8.664;2022-11-11T13:23:51;10.80;90.30
13086;DHT22;6609;49.882;8.664;2022-11-11T13:26:26;10.80;90.40
13086;DHT22;6609;49.882;8.664;2022-11-11T13:29:07;10.80;90.40
13086;DHT22;6609;49.882;8.664;2022-11-11T13:31:41;10.80;90.40
13086;DHT22;6609;49.882;8.664;2022-11-11T13:34:11;10.80;90.40
13086;DHT22;6609;49.882;8.664;2022-11-11T13:36:43;11.10;90.70
13086;DHT22;6609;49.882;8.664;2022-11-11T13:39:25;10.80;90.40
13086;DHT22;6609;49.882;8.664;2022-11-11T13:41:55;10.70;90.60
13086;DHT22;6609;49.882;8.664;2022-11-11T13:44:28;10.60;90.60
13086;DHT22;6609;49.882;8.664;2022-11-11T13:47:01;10.60;90.60
13086;DHT22;6609;49.882;8.664;2022-11-11T13:49:32;10.60;90.80
13086;DHT22;6609;49.882;8.664;2022-11-11T13:52:00;10.60;90.70
13086;DHT22;6609;49.882;8.664;2022-11-11T13:54:30;10.60;90.80
13086;DHT22;6609;49.882;8.664;2022-11-11T13:57:05;10.60;90.90
13086;DHT22;6609;49.882;8.664;2022-11-11T13:59:37;10.70;90.90
13086;DHT22;6609;49.882;8.664;2022-11-11T14:02:13;10.70;90.90
13086;DHT22;6609;49.882;8.664;2022-11-11T14:05:20;10.70;91.00
13086;DHT22;6609;49.882;8.664;2022-11-11T14:07:50;10.70;91.10
13086;DHT22;6609;49.882;8.664;2022-11-11T14:13:36;10.60;91.00
13086;DHT22;6609;49.882;8.664;2022-11-11T14:16:09;10.60;91.00
13086;DHT22;6609;49.882;8.664;2022-11-11T14:18:43;10.60;91.20
13086;DHT22;6609;49.882;8.664;2022-11-11T14:21:10;10.50;91.10
13086;DHT22;6609;49.882;8.664;2022-11-11T14:23:57;10.30;91.10
13086;DHT22;6609;49.882;8.664;2022-11-11T14:26:25;10.30;91.30
13086;DHT22;6609;49.882;8.664;2022-11-11T14:29:02;10.20;91.60
13086;DHT22;6609;49.882;8.664;2022-11-11T14:31:58;10.20;91.80
13086;DHT22;6609;49.882;8.664;2022-11-11T14:34:48;10.10;92.00
13086;DHT22;6609;49.882;8.664;2022-11-11T14:37:25;10.20;92.30
13086;DHT22;6609;49.882;8.664;2022-11-11T14:39:55;10.20;92.30
13086;DHT22;6609;49.882;8.664;2022-11-11T14:42:42;10.20;92.30
13086;DHT22;6609;49.882;8.664;2022-11-11T14:54:32;10.10;92.40
13086;DHT22;6609;49.882;8.664;2022-11-11T14:57:05;10.10;92.40
13086;DHT22;6609;49.882;8.664;2022-11-11T14:59:34;10.10;92.30
13086;DHT22;6609;49.882;8.664;2022-11-11T15:02:01;10.10;92.30
13086;DHT22;6609;49.882;8.664;2022-11-11T15:04:36;10.00;92.50
13086;DHT22;6609;49.882;8.664;2022-11-11T15:07:03;10.00;92.70
13086;DHT22;6609;49.882;8.664;2022-11-11T15:09:53;9.90;93.30
13086;DHT22;6609;49.882;8.664;2022-11-11T15:12:34;9.90;93.50
13086;DHT22;6609;49.882;8.664;2022-11-11T15:15:11;9.90;93.70
13086;DHT22;6609;49.882;8.664;2022-11-11T15:17:48;9.90;93.70
13086;DHT22;6609;49.882;8.664;2022-11-11T15:20:29;9.90;93.80
13086;DHT22;6609;49.882;8.664;2022-11-11T15:23:03;9.80;93.70
13086;DHT22;6609;49.882;8.664;2022-11-11T15:25:43;9.80;93.80
13086;DHT22;6609;49.882;8.664;2022-11-11T15:28:23;9.70;93.70
13086;DHT22;6609;49.882;8.664;2022-11-11T15:31:04;9.70;93.80
13086;DHT22;6609;49.882;8.664;2022-11-11T15:33:43;9.80;94.00
13086;DHT22;6609;49.882;8.664;2022-11-11T15:36:16;9.80;94.20
13086;DHT22;6609;49.882;8.664;2022-11-11T15:38:44;9.80;94.10
13086;DHT22;6609;49.882;8.664;2022-11-11T15:41:22;9.80;93.90
13086;DHT22;6609;49.882;8.664;2022-11-11T15:43:50;9.70;93.90
13086;DHT22;6609;49.882;8.664;2022-11-11T15:46:23;9.70;94.10
13086;DHT22;6609;49.882;8.664;2022-11-11T15:48:51;9.70;94.00
13086;DHT22;6609;49.882;8.664;2022-11-11T15:51:27;9.70;94.20
13086;DHT22;6609;49.882;8.664;2022-11-11T15:54:08;9.70;94.30
13086;DHT22;6609;49.882;8.664;2022-11-11T15:56:37;9.70;94.50
13086;DHT22;6609;49.882;8.664;2022-11-11T15:59:17;9.60;94.30
13086;DHT22;6609;49.882;8.664;2022-11-11T16:01:44;9.60;94.50
13086;DHT22;6609;49.882;8.664;2022-11-11T16:04:15;9.60;94.30
13086;DHT22;6609;49.882;8.664;2022-11-11T16:06:44;9.70;94.60
13086;DHT22;6609;49.882;8.664;2022-11-11T16:09:13;9.60;94.40
13086;DHT22;6609;49.882;8.664;2022-11-11T16:11:41;9.50;94.40
13086;DHT22;6609;49.882;8.664;2022-11-11T16:14:18;9.60;94.70
13086;DHT22;6609;49.882;8.664;2022-11-11T16:16:47;9.60;94.80
13086;DHT22;6609;49.882;8.664;2022-11-11T16:19:23;9.60;94.80
13086;DHT22;6609;49.882;8.664;2022-11-11T16:21:56;9.60;94.80
13086;DHT22;6609;49.882;8.664;2022-11-11T16:24:27;9.60;95.00
13086;DHT22;6609;49.882;8.664;2022-11-11T16:26:57;9.50;94.90
13086;DHT22;6609;49.882;8.664;2022-11-11T16:29:28;9.50;94.80
13086;DHT22;6609;49.882;8.664;2022-11-11T16:31:57;9.50;95.00
13086;DHT22;6609;49.882;8.664;2022-11-11T16:34:45;9.50;95.10
13086;DHT22;6609;49.882;8.664;2022-11-11T16:37:13;9.50;95.10
13086;DHT22;6609;49.882;8.664;2022-11-11T16:39:42;9.50;95.20
13086;DHT22;6609;49.882;8.664;2022-11-11T16:42:18;9.50;95.20
13086;DHT22;6609;49.882;8.664;2022-11-11T16:44:49;9.50;95.10
13086;DHT22;6609;49.882;8.664;2022-11-11T16:47:42;9.40;95.00
13086;DHT22;6609;49.882;8.664;2022-11-11T16:50:13;9.50;95.20
13086;DHT22;6609;49.882;8.664;2022-11-11T16:52:44;9.50;95.10
13086;DHT22;6609;49.882;8.664;2022-11-11T16:55:18;9.50;95.10
13086;DHT22;6609;49.882;8.664;2022-11-11T16:57:47;9.50;95.20
13086;DHT22;6609;49.882;8.664;2022-11-11T17:00:16;9.50;95.40
13086;DHT22;6609;49.882;8.664;2022-11-11T17:02:44;9.50;95.30
13086;DHT22;6609;49.882;8.664;2022-11-11T17:05:10;9.50;95.50
13086;DHT22;6609;49.882;8.664;2022-11-11T17:07:39;9.50;95.50
13086;DHT22;6609;49.882;8.664;2022-11-11T17:10:12;9.40;95.20
13086;DHT22;6609;49.882;8.664;2022-11-11T17:12:39;9.50;95.40
13086;DHT22;6609;49.882;8.664;2022-11-11T17:15:09;9.40;95.30
13086;DHT22;6609;49.882;8.664;2022-11-11T17:17:36;9.30;95.10